KSCH/SCH METAR and TAF weather

Enter ICAO airport designator
Station Type Date Time Source
KSCH METAR 2021/09/24 01:55 UTC NOAA

KSCH 240155Z 19010G17KT 7SM -RA SCT009 BKN022 OVC029 22/22 A2991 RMK LAST


Station Type Date Time Source
KSCH Decoded METAR 2021/09/24 01:55 UTC NOAA

Schenectady Airport, NY, United States (KSCH) 42-51N 073-56W
Sep 23, 2021 - 09:55 PM EDT / 2021.09.24 0155 UTC
Wind: from the S (190 degrees) at 12 MPH (10 KT) gusting to 20 MPH (17 KT):0
Visibility: 7 mile(s):0
Sky conditions: overcast
Weather: light rain
Temperature: 71 F (22 C)
Dew Point: 71 F (22 C)
Relative Humidity: 100%
Pressure (altimeter): 29.91 in. Hg (1012 hPa)
ob: KSCH 240155Z 19010G17KT 7SM -RA SCT009 BKN022 OVC029 22/22 A2991 RMK LAST
cycle: 2

Station Type Date Time Source
KSCH TAF UTC NOAA

Error!

Example: see airport list